RJST(METAR)
03/23 14:17
RJST 230517Z 29020G30KT 9999 FEW020 SCT050 10/M07 Q1014 RMK
1CU020 4CU050 A2995=
戻る
トップページへ戻る
IMOC Co,.Ltd.